Time;durP1;ratioP1;P1;durP2;ratioP2;P2;SDS_P1;SDS_P2;PMS_P1;PMS_P2;Temp;Humidity;BMP_temperature;BMP_pressure;BME280_temperature;BME280_humidity;BME280_pressure;Samples;Min_cycle;Max_cycle;Signal;HPM_P1;HPM_P2
2022/06/16 00:02:07;;;;;;;2.22;0.70;;;15.30;99.90;;;;;;6108801;23;20768;-74
2022/06/16 00:04:33;;;;;;;2.22;0.88;;;15.20;99.90;;;;;;6112174;23;20032;-74
2022/06/16 00:06:59;;;;;;;2.03;0.80;;;15.00;99.90;;;;;;6108093;23;20010;-74
2022/06/16 00:09:26;;;;;;;1.05;1.00;;;14.90;99.90;;;;;;6087131;23;20109;-74
2022/06/16 00:11:52;;;;;;;1.38;1.27;;;14.80;99.90;;;;;;6111334;23;20014;-74
2022/06/16 00:14:18;;;;;;;2.28;0.90;;;14.80;99.90;;;;;;6112999;23;20012;-74
2022/06/16 00:16:45;;;;;;;2.50;1.08;;;14.70;99.90;;;;;;6112245;23;20010;-76
2022/06/16 00:19:11;;;;;;;2.88;0.90;;;14.70;99.90;;;;;;6111868;23;20535;-76
2022/06/16 00:21:37;;;;;;;0.98;0.75;;;14.70;99.90;;;;;;6114261;23;20457;-75
2022/06/16 00:24:02;;;;;;;2.63;1.10;;;14.70;99.90;;;;;;6110757;23;20067;-76
2022/06/16 00:26:28;;;;;;;1.52;1.00;;;14.70;99.90;;;;;;6109798;23;20014;-76
2022/06/16 00:28:54;;;;;;;3.38;0.98;;;14.70;99.90;;;;;;6111482;23;20013;-76
2022/06/16 00:31:22;;;;;;;1.92;1.10;;;14.70;99.90;;;;;;6105190;23;20025;-74
2022/06/16 00:33:48;;;;;;;0.95;0.80;;;14.70;99.90;;;;;;6107727;23;20001;-75
2022/06/16 00:36:14;;;;;;;1.17;1.00;;;14.60;99.90;;;;;;6104346;23;20109;-73
2022/06/16 00:38:40;;;;;;;1.90;1.40;;;14.60;99.90;;;;;;6109451;23;20081;-73
2022/06/16 00:41:07;;;;;;;2.35;0.88;;;14.60;99.90;;;;;;6106906;23;20006;-73
2022/06/16 00:43:33;;;;;;;1.92;1.25;;;14.50;99.90;;;;;;6111260;23;20085;-73
2022/06/16 00:46:02;;;;;;;2.53;1.20;;;14.50;99.90;;;;;;6108002;23;20794;-73
2022/06/16 00:48:50;;;;;;;0.93;0.88;;;14.50;99.90;;;;;;6108267;23;20079;-72
2022/06/16 00:51:39;;;;;;;1.67;0.95;;;14.40;99.90;;;;;;6106372;23;20248;-72
2022/06/16 00:54:26;;;;;;;1.58;1.20;;;14.40;99.90;;;;;;6082790;23;20104;-72
2022/06/16 00:56:58;;;;;;;1.75;0.80;;;14.50;99.90;;;;;;6104505;23;20010;-77
2022/06/16 00:59:24;;;;;;;23.83;1.60;;;14.50;99.90;;;;;;6096079;23;20388;-77
2022/06/16 01:01:51;;;;;;;2.55;0.82;;;14.40;99.90;;;;;;6103050;23;20012;-74
2022/06/16 01:07:08;;;;;;;1.67;0.82;;;14.40;99.90;;;;;;6109505;23;20017;-75
2022/06/16 01:09:34;;;;;;;2.47;1.00;;;14.30;99.90;;;;;;6109335;23;20479;-76
2022/06/16 01:15:37;;;;;;;1.33;0.90;;;14.20;99.90;;;;;;6108642;23;20080;-71
2022/06/16 01:18:29;;;;;;;0.75;0.75;;;14.10;99.90;;;;;;6112087;23;20025;-70
2022/06/16 01:21:18;;;;;;;2.63;1.10;;;14.10;99.90;;;;;;6107158;23;20533;-71
2022/06/16 01:24:02;;;;;;;2.70;0.90;;;14.00;99.90;;;;;;6111529;23;20539;-71
2022/06/16 01:26:37;;;;;;;1.73;0.93;;;14.00;99.90;;;;;;6112023;23;20097;-71
2022/06/16 01:29:06;;;;;;;1.13;0.80;;;14.10;99.90;;;;;;6109204;23;20550;-70
2022/06/16 01:31:53;;;;;;;2.55;0.77;;;14.10;99.90;;;;;;6111195;23;20020;-71
2022/06/16 01:34:43;;;;;;;1.10;1.00;;;14.10;99.90;;;;;;6110561;23;20002;-70
2022/06/16 01:37:18;;;;;;;1.95;1.02;;;14.10;99.90;;;;;;6107813;23;20180;-70
2022/06/16 01:40:02;;;;;;;1.10;0.93;;;14.20;99.90;;;;;;6100862;23;20097;-71
2022/06/16 01:42:37;;;;;;;2.35;1.00;;;14.20;99.90;;;;;;6108241;23;20014;-70
2022/06/16 01:45:15;;;;;;;1.20;0.93;;;14.20;99.90;;;;;;6111524;23;20002;-70
2022/06/16 01:47:47;;;;;;;1.10;1.00;;;14.10;99.90;;;;;;6110079;23;20205;-70
2022/06/16 01:50:18;;;;;;;0.80;0.80;;;14.10;99.90;;;;;;6085169;23;20022;-71
2022/06/16 01:52:55;;;;;;;1.35;0.80;;;14.10;99.90;;;;;;6113998;23;20689;-71
2022/06/16 01:55:28;;;;;;;1.40;1.02;;;14.00;99.90;;;;;;6113830;23;20076;-71
2022/06/16 01:58:24;;;;;;;1.83;1.67;;;13.90;99.90;;;;;;6112771;23;20098;-70
2022/06/16 02:00:52;;;;;;;1.58;0.70;;;13.90;99.90;;;;;;6112078;23;20317;-71
2022/06/16 02:03:31;;;;;;;1.10;0.90;;;13.90;99.90;;;;;;6109962;23;20013;-71
2022/06/16 02:06:23;;;;;;;1.90;0.95;;;13.90;99.90;;;;;;6112389;23;20002;-70
2022/06/16 02:08:56;;;;;;;0.73;0.73;;;13.80;99.90;;;;;;6111581;23;20009;-70
2022/06/16 02:11:32;;;;;;;3.55;1.20;;;13.80;99.90;;;;;;6107694;23;20018;-71
2022/06/16 02:13:59;;;;;;;1.95;1.05;;;13.80;99.90;;;;;;6113845;23;20060;-70
2022/06/16 02:16:28;;;;;;;1.30;1.02;;;13.80;99.90;;;;;;6107482;23;20301;-71
2022/06/16 02:18:55;;;;;;;1.38;1.13;;;13.80;99.90;;;;;;6110079;23;20006;-71
2022/06/16 02:21:39;;;;;;;1.73;0.93;;;13.80;99.90;;;;;;6111397;23;20009;-71
2022/06/16 02:24:08;;;;;;;1.80;0.75;;;13.70;99.90;;;;;;6111998;23;20014;-71
2022/06/16 02:26:34;;;;;;;7.15;1.05;;;13.70;99.90;;;;;;6111805;23;20018;-79
2022/06/16 02:29:03;;;;;;;1.67;0.85;;;13.70;99.90;;;;;;6108661;23;20396;-79
2022/06/16 02:31:50;;;;;;;2.70;1.10;;;13.70;99.90;;;;;;6110053;23;20017;-79
2022/06/16 02:35:06;;;;;;;2.65;1.10;;;13.70;99.90;;;;;;6113285;23;20006;-79
2022/06/16 02:37:38;;;;;;;1.08;1.00;;;13.70;99.90;;;;;;6019510;23;20019;-79
2022/06/16 02:40:03;;;;;;;2.05;1.15;;;13.60;99.90;;;;;;6019891;23;20014;-79
2022/06/16 02:42:59;;;;;;;1.73;1.00;;;13.70;99.90;;;;;;6064484;23;20018;-79
2022/06/16 02:45:36;;;;;;;3.28;0.80;;;13.70;99.90;;;;;;6111520;23;20002;-78
2022/06/16 02:48:07;;;;;;;3.25;1.20;;;13.60;99.90;;;;;;6109279;23;20025;-79
2022/06/16 02:50:39;;;;;;;1.58;0.75;;;13.60;99.90;;;;;;6110888;23;20022;-71
2022/06/16 02:53:29;;;;;;;0.90;0.73;;;13.50;99.90;;;;;;6111853;23;20002;-71
2022/06/16 02:56:02;;;;;;;1.77;0.90;;;13.50;99.90;;;;;;6111686;23;20092;-71
2022/06/16 02:58:29;;;;;;;2.60;0.88;;;13.50;99.90;;;;;;6108736;23;20013;-71
2022/06/16 03:00:56;;;;;;;2.15;0.95;;;13.50;99.90;;;;;;6109876;23;20328;-71
2022/06/16 03:03:33;;;;;;;1.50;0.95;;;13.50;99.90;;;;;;6108838;23;20006;-71
2022/06/16 03:05:59;;;;;;;2.65;1.10;;;13.50;99.90;;;;;;6109596;23;20337;-71
2022/06/16 03:08:28;;;;;;;1.02;0.80;;;13.50;99.90;;;;;;6109249;23;20009;-71
2022/06/16 03:10:58;;;;;;;2.50;0.98;;;13.60;99.90;;;;;;6109568;23;20105;-70
2022/06/16 03:13:27;;;;;;;2.63;1.25;;;13.60;99.90;;;;;;6111120;23;20415;-70
2022/06/16 03:15:55;;;;;;;2.42;0.80;;;13.70;99.90;;;;;;6076805;23;20064;-70
2022/06/16 03:18:21;;;;;;;2.17;1.02;;;13.70;99.90;;;;;;6108024;23;20107;-71
2022/06/16 03:20:48;;;;;;;1.00;1.00;;;13.70;99.90;;;;;;6110257;23;20110;-71
2022/06/16 03:23:14;;;;;;;2.75;1.20;;;13.70;99.90;;;;;;6109944;23;20069;-71
2022/06/16 03:25:40;;;;;;;1.95;0.90;;;13.60;99.90;;;;;;6109142;23;20359;-71
2022/06/16 03:28:07;;;;;;;5.10;2.13;;;13.60;99.90;;;;;;6110159;23;20037;-71
2022/06/16 03:30:34;;;;;;;1.15;0.90;;;13.60;99.90;;;;;;6111198;23;20010;-70
2022/06/16 03:33:01;;;;;;;1.63;1.00;;;13.60;99.90;;;;;;6111529;23;20097;-70
2022/06/16 03:35:27;;;;;;;1.30;0.93;;;13.60;99.90;;;;;;6113029;23;20165;-70
2022/06/16 03:37:52;;;;;;;3.33;1.30;;;13.60;99.90;;;;;;6113964;23;20045;-70
2022/06/16 03:40:20;;;;;;;3.17;1.05;;;13.70;99.90;;;;;;6112974;23;20133;-71
2022/06/16 03:42:47;;;;;;;3.22;0.95;;;13.70;99.90;;;;;;6114902;23;19998;-70
2022/06/16 03:45:13;;;;;;;2.97;1.33;;;13.80;99.90;;;;;;6109836;23;20081;-70
2022/06/16 03:47:38;;;;;;;1.88;1.02;;;13.90;99.90;;;;;;6109175;23;20085;-70
2022/06/16 03:50:05;;;;;;;3.60;1.20;;;14.00;99.90;;;;;;6109344;23;20092;-71
2022/06/16 03:52:31;;;;;;;4.13;1.48;;;14.00;99.90;;;;;;6114084;23;20081;-70
2022/06/16 03:54:56;;;;;;;1.40;1.23;;;14.00;99.90;;;;;;6112135;23;20491;-71
2022/06/16 03:57:22;;;;;;;1.45;1.10;;;14.10;99.90;;;;;;6112336;23;19998;-71
2022/06/16 03:59:47;;;;;;;7.03;1.38;;;14.20;99.90;;;;;;6111379;23;20013;-70
2022/06/16 04:02:13;;;;;;;4.03;1.30;;;14.20;99.90;;;;;;6108920;23;20215;-71
2022/06/16 04:04:39;;;;;;;2.22;1.27;;;14.30;99.90;;;;;;6114510;23;20014;-71
2022/06/16 04:07:05;;;;;;;3.53;1.50;;;14.30;99.90;;;;;;6111927;23;20033;-71
2022/06/16 04:09:30;;;;;;;1.98;1.30;;;14.30;99.90;;;;;;6113433;23;20005;-71
2022/06/16 04:11:56;;;;;;;1.85;1.35;;;14.40;99.90;;;;;;6086433;23;20029;-71
2022/06/16 04:14:22;;;;;;;3.10;1.50;;;14.50;99.90;;;;;;6113406;23;20006;-71
2022/06/16 04:16:51;;;;;;;2.58;1.67;;;14.60;99.90;;;;;;6110967;23;20010;-71
2022/06/16 04:19:21;;;;;;;1.33;1.23;;;14.70;99.90;;;;;;6111383;23;20005;-71
2022/06/16 04:21:48;;;;;;;1.42;1.33;;;14.80;99.90;;;;;;6112271;23;20002;-71
2022/06/16 04:24:14;;;;;;;2.95;1.52;;;14.90;99.90;;;;;;6109172;23;20010;-71
2022/06/16 04:26:41;;;;;;;2.50;1.40;;;15.10;99.90;;;;;;6113659;23;20005;-71
2022/06/16 04:29:08;;;;;;;2.15;1.50;;;15.20;99.90;;;;;;6112820;23;20022;-71
2022/06/16 04:31:35;;;;;;;2.97;1.90;;;15.30;99.90;;;;;;6112350;23;20269;-71
2022/06/16 04:34:02;;;;;;;3.55;1.88;;;15.40;99.90;;;;;;6111928;23;20060;-71
2022/06/16 04:36:28;;;;;;;1.80;1.50;;;15.50;99.90;;;;;;6113759;23;20483;-71
2022/06/16 04:38:54;;;;;;;2.35;1.30;;;15.60;99.90;;;;;;6111694;23;20050;-72
2022/06/16 04:41:20;;;;;;;1.77;1.23;;;15.70;99.90;;;;;;6108237;23;20085;-71
2022/06/16 04:43:46;;;;;;;3.17;1.30;;;15.70;99.90;;;;;;6114454;23;20097;-71
2022/06/16 04:46:13;;;;;;;2.70;1.33;;;15.70;99.90;;;;;;6112379;23;20034;-71
2022/06/16 04:48:39;;;;;;;6.07;1.83;;;15.90;99.90;;;;;;6109469;23;20096;-71
2022/06/16 04:51:05;;;;;;;4.60;1.40;;;16.00;99.90;;;;;;6111013;23;20014;-72
2022/06/16 04:53:32;;;;;;;6.38;1.40;;;16.00;99.90;;;;;;6085272;23;20022;-71
2022/06/16 04:55:59;;;;;;;4.50;1.67;;;16.20;99.90;;;;;;6105623;23;20020;-71
2022/06/16 04:58:26;;;;;;;5.05;1.52;;;16.30;99.90;;;;;;6110040;23;20621;-71
2022/06/16 05:00:53;;;;;;;2.03;1.30;;;16.40;99.90;;;;;;6106049;23;20017;-71
2022/06/16 05:03:22;;;;;;;7.97;1.65;;;16.50;99.90;;;;;;6107233;23;20484;-70
2022/06/16 05:05:48;;;;;;;9.07;1.90;;;16.60;99.90;;;;;;6110685;23;20369;-71
2022/06/16 05:08:16;;;;;;;3.50;1.92;;;16.70;99.90;;;;;;6110981;23;20344;-71
2022/06/16 05:10:42;;;;;;;4.90;1.33;;;16.70;99.90;;;;;;6086316;23;20014;-71
2022/06/16 05:13:09;;;;;;;1.90;1.45;;;16.90;99.90;;;;;;6113257;23;20057;-71
2022/06/16 05:15:35;;;;;;;1.70;1.20;;;17.10;99.90;;;;;;6114153;23;20018;-70
2022/06/16 05:18:02;;;;;;;2.08;1.60;;;17.20;99.90;;;;;;6111098;23;20476;-71
2022/06/16 05:20:28;;;;;;;3.70;2.03;;;17.30;99.90;;;;;;6112884;23;20127;-71
2022/06/16 05:22:53;;;;;;;2.42;1.23;;;17.40;99.90;;;;;;6114473;23;20425;-71
2022/06/16 05:25:19;;;;;;;2.15;1.23;;;17.50;99.90;;;;;;6115880;23;20387;-70
2022/06/16 05:27:45;;;;;;;2.25;1.60;;;17.70;99.90;;;;;;6115519;23;20013;-71
2022/06/16 05:30:11;;;;;;;5.20;1.40;;;17.70;99.90;;;;;;6113761;23;20020;-70
2022/06/16 05:32:36;;;;;;;2.15;1.20;;;17.80;99.90;;;;;;6114001;23;20001;-70
2022/06/16 05:35:03;;;;;;;9.10;1.30;;;17.90;99.90;;;;;;6115744;23;20006;-70
2022/06/16 05:37:30;;;;;;;2.95;1.35;;;18.00;99.90;;;;;;6115335;23;20001;-70
2022/06/16 05:39:56;;;;;;;2.15;1.25;;;18.10;99.90;;;;;;6088745;23;20021;-71
2022/06/16 05:42:21;;;;;;;0.95;0.95;;;18.20;99.90;;;;;;6112197;23;20010;-71
2022/06/16 05:44:47;;;;;;;8.20;1.67;;;18.30;99.90;;;;;;6113359;23;19998;-72
2022/06/16 05:47:13;;;;;;;1.80;1.10;;;18.40;99.90;;;;;;6113196;23;20069;-72
2022/06/16 05:49:39;;;;;;;2.08;1.20;;;18.50;99.90;;;;;;6114322;23;20061;-72
2022/06/16 05:52:14;;;;;;;1.17;0.90;;;18.60;99.90;;;;;;6104219;23;20028;-74
2022/06/16 05:54:40;;;;;;;2.67;1.42;;;18.70;99.90;;;;;;6086456;23;20018;-73
2022/06/16 05:57:08;;;;;;;3.17;1.30;;;18.80;99.90;;;;;;6113837;23;20097;-72
2022/06/16 05:59:34;;;;;;;3.90;0.93;;;18.90;99.90;;;;;;6113417;23;20353;-71
2022/06/16 06:02:00;;;;;;;3.33;1.00;;;19.10;99.40;;;;;;6099165;23;20060;-74
2022/06/16 06:04:26;;;;;;;1.80;1.25;;;19.20;99.00;;;;;;6103053;23;20081;-72
2022/06/16 06:06:53;;;;;;;3.80;1.17;;;19.30;98.60;;;;;;6114230;23;20025;-72
2022/06/16 06:17:35;;;;;;;1.15;0.90;;;19.50;97.60;;;;;;6107735;23;20040;-71
2022/06/16 06:20:01;;;;;;;2.70;1.10;;;19.60;98.00;;;;;;6113208;23;20434;-72
2022/06/16 06:22:27;;;;;;;3.40;1.00;;;19.70;98.30;;;;;;6112025;23;20014;-72
2022/06/16 06:25:00;;;;;;;2.55;1.00;;;19.80;98.70;;;;;;6114327;23;20079;-72
2022/06/16 06:27:28;;;;;;;4.45;1.38;;;19.90;98.60;;;;;;6112406;23;20398;-72
2022/06/16 06:29:54;;;;;;;8.55;1.10;;;20.10;98.20;;;;;;6113240;23;20010;-71
2022/06/16 06:32:22;;;;;;;5.47;1.35;;;20.10;97.30;;;;;;6109730;23;20077;-71
2022/06/16 06:34:48;;;;;;;6.53;1.20;;;20.30;97.10;;;;;;6112812;23;20080;-71
2022/06/16 06:37:16;;;;;;;0.80;0.70;;;20.30;96.60;;;;;;6110371;23;20029;-71
2022/06/16 06:39:42;;;;;;;2.63;0.98;;;20.30;96.80;;;;;;6107758;23;20396;-71
2022/06/16 06:42:08;;;;;;;2.20;1.13;;;20.40;97.20;;;;;;6104428;23;20006;-72
2022/06/16 06:44:34;;;;;;;2.05;1.08;;;20.50;96.50;;;;;;6112213;23;20824;-71
2022/06/16 06:47:01;;;;;;;17.80;2.30;;;20.50;96.50;;;;;;6110595;23;20700;-71
2022/06/16 06:49:28;;;;;;;2.05;0.90;;;20.60;96.80;;;;;;6109935;23;20490;-71
2022/06/16 06:51:53;;;;;;;2.47;0.82;;;20.70;96.60;;;;;;6111103;23;20013;-71
2022/06/16 06:54:20;;;;;;;3.45;1.00;;;20.80;96.90;;;;;;6110937;23;20049;-71
2022/06/16 06:56:47;;;;;;;1.00;0.90;;;20.80;96.20;;;;;;6112439;23;20034;-71
2022/06/16 06:59:18;;;;;;;2.78;0.88;;;20.80;97.00;;;;;;6109760;23;20380;-70
2022/06/16 07:01:44;;;;;;;1.65;1.02;;;20.90;96.60;;;;;;6108213;23;20016;-70
2022/06/16 07:04:09;;;;;;;2.20;1.17;;;21.00;96.10;;;;;;6102558;23;20077;-71
2022/06/16 07:06:36;;;;;;;1.92;0.80;;;21.10;95.40;;;;;;6110581;23;20226;-71
2022/06/16 07:09:02;;;;;;;1.40;1.00;;;21.10;95.90;;;;;;6111924;23;20096;-72
2022/06/16 07:11:28;;;;;;;1.73;1.17;;;21.30;95.30;;;;;;6100639;23;20042;-71
2022/06/16 07:13:53;;;;;;;1.63;0.73;;;21.30;95.10;;;;;;6106867;23;20053;-71
2022/06/16 07:16:21;;;;;;;1.90;1.20;;;21.40;95.10;;;;;;6109235;23;20002;-71
2022/06/16 07:18:46;;;;;;;5.53;0.90;;;21.40;95.50;;;;;;6106074;23;20416;-71
2022/06/16 07:21:14;;;;;;;1.83;1.20;;;21.60;96.40;;;;;;6106332;23;20415;-71
2022/06/16 07:23:41;;;;;;;1.25;0.90;;;21.70;96.40;;;;;;6111075;23;20036;-71
2022/06/16 07:26:07;;;;;;;1.95;0.90;;;21.70;94.90;;;;;;6112352;23;20129;-71
2022/06/16 07:28:32;;;;;;;2.63;0.90;;;21.80;95.20;;;;;;6110769;23;20026;-70
2022/06/16 07:30:58;;;;;;;3.30;0.90;;;21.90;95.40;;;;;;6106862;23;20018;-70
2022/06/16 07:33:23;;;;;;;2.55;0.70;;;22.00;95.00;;;;;;6109930;23;20076;-70
2022/06/16 07:35:52;;;;;;;2.08;1.13;;;22.10;94.30;;;;;;6111695;23;20022;-76
2022/06/16 07:38:19;;;;;;;2.22;0.80;;;22.10;94.80;;;;;;6109381;23;20002;-76
2022/06/16 07:40:45;;;;;;;1.67;0.90;;;22.20;93.80;;;;;;6114635;23;20017;-76
2022/06/16 07:43:10;;;;;;;2.50;1.20;;;22.30;93.00;;;;;;6087210;23;20010;-77
2022/06/16 07:45:38;;;;;;;1.27;0.77;;;22.30;94.30;;;;;;6083437;23;20451;-78
2022/06/16 07:48:06;;;;;;;1.65;1.00;;;22.40;93.90;;;;;;6109293;23;20053;-77
2022/06/16 07:50:36;;;;;;;1.05;0.70;;;22.40;93.80;;;;;;6110829;23;20010;-76
2022/06/16 07:53:03;;;;;;;1.35;0.73;;;22.50;92.40;;;;;;6113673;23;20313;-81
2022/06/16 07:55:28;;;;;;;1.63;0.90;;;22.50;92.20;;;;;;6113657;23;20013;-75
2022/06/16 07:57:54;;;;;;;2.05;0.95;;;22.30;91.70;;;;;;6112170;23;20025;-80
2022/06/16 08:00:26;;;;;;;2.08;1.17;;;22.30;92.10;;;;;;6110500;23;20046;-74
2022/06/16 08:02:53;;;;;;;;;;;22.30;92.70;;;;;;6112181;23;20002;-75
2022/06/16 08:05:19;;;;;;;1.42;1.00;;;22.40;93.20;;;;;;6112153;23;19936;-76
2022/06/16 08:07:45;;;;;;;2.08;0.90;;;22.50;92.80;;;;;;6113785;23;20792;-75
2022/06/16 08:10:18;;;;;;;2.17;0.98;;;22.60;92.60;;;;;;6114433;23;20428;-75
2022/06/16 08:12:43;;;;;;;1.40;1.00;;;22.70;93.10;;;;;;6109690;23;20033;-76
2022/06/16 08:15:10;;;;;;;1.55;0.88;;;22.80;93.80;;;;;;6113932;23;20002;-76
2022/06/16 08:17:40;;;;;;;1.95;1.00;;;22.90;93.90;;;;;;6110341;23;20064;-75
2022/06/16 08:20:06;;;;;;;3.58;1.00;;;23.10;92.90;;;;;;6109348;23;20006;-76
2022/06/16 08:22:33;;;;;;;2.00;1.10;;;23.20;92.00;;;;;;6110974;23;20041;-76
2022/06/16 08:24:59;;;;;;;1.58;1.02;;;23.10;91.80;;;;;;6112903;23;20006;-76
2022/06/16 08:27:31;;;;;;;2.25;1.00;;;23.20;91.80;;;;;;6086303;23;20222;-74
2022/06/16 08:29:57;;;;;;;2.13;0.90;;;23.20;92.40;;;;;;6110008;23;20006;-77
2022/06/16 08:32:23;;;;;;;2.50;1.02;;;23.30;91.90;;;;;;6111778;23;20018;-75
2022/06/16 08:34:50;;;;;;;1.00;0.90;;;23.40;92.30;;;;;;6108628;23;19998;-76
2022/06/16 08:37:16;;;;;;;1.95;1.30;;;23.50;90.70;;;;;;6110558;23;20016;-76
2022/06/16 08:39:43;;;;;;;2.95;1.35;;;23.60;91.00;;;;;;6109123;23;20320;-74
2022/06/16 08:42:40;;;;;;;1.95;1.23;;;23.70;91.00;;;;;;6114638;23;20014;-75
2022/06/16 08:45:26;;;;;;;3.83;1.40;;;23.80;90.90;;;;;;6083976;23;20117;-76
2022/06/16 08:47:54;;;;;;;3.45;1.10;;;23.90;90.90;;;;;;6110652;23;20121;-75
2022/06/16 08:50:52;;;;;;;1.55;1.20;;;24.00;91.00;;;;;;6112775;23;20033;-73
2022/06/16 08:53:45;;;;;;;1.20;0.90;;;24.00;91.30;;;;;;6108194;23;20025;-74
2022/06/16 08:56:26;;;;;;;1.83;1.17;;;24.10;91.00;;;;;;6110211;23;20033;-72
2022/06/16 08:59:21;;;;;;;4.28;1.60;;;24.10;89.20;;;;;;6087682;23;20020;-71
2022/06/16 09:02:03;;;;;;;3.15;1.25;;;24.20;88.30;;;;;;6111830;23;20073;-70
2022/06/16 09:04:32;;;;;;;4.97;1.60;;;24.30;86.60;;;;;;6114647;23;20466;-70
2022/06/16 09:07:05;;;;;;;1.38;1.20;;;24.40;85.10;;;;;;6108642;23;20383;-71
2022/06/16 09:13:08;;;;;;;7.63;1.10;;;24.50;81.90;;;;;;6113862;23;20133;-68
2022/06/16 09:15:38;;;;;;;1.67;1.58;;;24.60;83.80;;;;;;6110297;23;20564;-66
2022/06/16 09:18:41;;;;;;;4.75;1.45;;;24.70;83.30;;;;;;6107901;23;20010;-68
2022/06/16 09:21:20;;;;;;;4.20;1.40;;;24.80;79.80;;;;;;6114143;23;20013;-66
2022/06/16 09:24:06;;;;;;;2.13;1.40;;;24.80;78.00;;;;;;6114713;23;20555;-66
2022/06/16 09:26:47;;;;;;;5.13;1.73;;;24.80;76.80;;;;;;6090595;23;20009;-67
2022/06/16 09:29:23;;;;;;;3.05;1.17;;;24.70;79.10;;;;;;6114343;23;20006;-69
2022/06/16 09:32:14;;;;;;;5.20;1.55;;;24.80;80.30;;;;;;6084723;23;20474;-76
2022/06/16 09:34:51;;;;;;;2.90;1.40;;;24.90;78.40;;;;;;6111173;23;20092;-67
2022/06/16 09:37:32;;;;;;;2.35;1.40;;;24.90;78.10;;;;;;6113375;23;20010;-67
2022/06/16 09:40:03;;;;;;;2.10;1.40;;;24.90;81.60;;;;;;6113266;23;20002;-68
2022/06/16 09:42:40;;;;;;;3.20;1.43;;;24.90;77.70;;;;;;6113038;23;20064;-66
2022/06/16 09:45:37;;;;;;;1.52;1.20;;;24.90;78.00;;;;;;6086212;23;20002;-66
2022/06/16 09:48:02;;;;;;;3.15;1.30;;;24.90;78.80;;;;;;6095645;23;20030;-66
2022/06/16 09:50:52;;;;;;;1.30;1.20;;;25.00;80.90;;;;;;6114590;23;20088;-68
2022/06/16 09:53:33;;;;;;;3.17;1.10;;;25.20;76.50;;;;;;6088782;23;20061;-68
2022/06/16 09:56:51;;;;;;;1.20;0.93;;;25.20;76.60;;;;;;6112475;23;20080;-65
2022/06/16 09:59:24;;;;;;;2.80;1.50;;;25.20;74.30;;;;;;6062147;23;20033;-66
2022/06/16 10:02:09;;;;;;;2.15;1.20;;;25.20;75.50;;;;;;6109808;23;20006;-66
2022/06/16 10:04:35;;;;;;;2.20;1.02;;;25.20;75.10;;;;;;6112462;23;20125;-67
2022/06/16 10:07:30;;;;;;;3.97;1.10;;;25.10;73.40;;;;;;6112790;23;20014;-66
2022/06/16 10:10:11;;;;;;;1.67;1.13;;;25.20;73.70;;;;;;6086962;23;20013;-67
2022/06/16 10:13:17;;;;;;;1.60;1.13;;;25.20;74.10;;;;;;6111634;23;20025;-68
2022/06/16 10:15:58;;;;;;;3.13;1.23;;;25.30;73.70;;;;;;6094220;23;20017;-67
2022/06/16 10:18:24;;;;;;;2.47;1.20;;;25.40;73.50;;;;;;6110939;23;20040;-69
2022/06/16 10:20:50;;;;;;;3.78;1.50;;;25.50;72.60;;;;;;6112745;23;20092;-66
2022/06/16 10:23:21;;;;;;;5.72;1.15;;;25.50;71.80;;;;;;6112545;23;20006;-69
2022/06/16 10:25:54;;;;;;;1.35;1.23;;;25.40;71.90;;;;;;6112572;23;20131;-67
2022/06/16 10:28:23;;;;;;;2.08;1.10;;;25.40;71.80;;;;;;6111536;23;20009;-67
2022/06/16 10:30:49;;;;;;;2.03;1.00;;;25.40;74.30;;;;;;6111866;23;20032;-66
2022/06/16 10:33:22;;;;;;;4.68;1.00;;;25.50;73.90;;;;;;6109011;23;20006;-66
2022/06/16 10:36:03;;;;;;;1.60;0.90;;;25.60;72.30;;;;;;6110535;23;20041;-66
2022/06/16 10:38:32;;;;;;;1.65;1.23;;;25.60;70.50;;;;;;6111972;23;20061;-68
2022/06/16 10:41:01;;;;;;;1.13;1.02;;;25.50;71.60;;;;;;6112140;23;20010;-67
2022/06/16 10:43:29;;;;;;;0.75;0.75;;;25.50;73.90;;;;;;6111189;23;20006;-67
2022/06/16 10:46:19;;;;;;;1.40;1.10;;;25.50;72.20;;;;;;6111894;23;20072;-68
2022/06/16 10:48:53;;;;;;;0.88;0.82;;;25.60;72.90;;;;;;6110894;23;20057;-68
2022/06/16 10:51:25;;;;;;;3.17;1.00;;;25.70;72.50;;;;;;6107287;23;20022;-66
2022/06/16 10:54:00;;;;;;;2.15;1.00;;;25.80;71.80;;;;;;6110841;23;20081;-69
2022/06/16 10:56:27;;;;;;;3.13;0.90;;;25.90;69.10;;;;;;6112972;23;20065;-66
2022/06/16 10:59:00;;;;;;;3.03;0.98;;;25.90;69.10;;;;;;6111965;23;20002;-66
2022/06/16 11:01:35;;;;;;;0.93;0.82;;;25.90;67.20;;;;;;6113996;23;20089;-66
2022/06/16 11:04:26;;;;;;;2.00;1.10;;;25.90;65.90;;;;;;6109135;23;20559;-69
2022/06/16 11:06:56;;;;;;;1.77;0.77;;;25.90;67.60;;;;;;6100798;23;20020;-66
2022/06/16 11:09:26;;;;;;;3.75;0.93;;;26.00;69.50;;;;;;6113715;23;20002;-66
2022/06/16 11:12:17;;;;;;;3.03;0.80;;;26.10;70.10;;;;;;6114698;23;20024;-67
2022/06/16 11:14:45;;;;;;;1.80;0.90;;;26.10;66.40;;;;;;6112339;23;20070;-69
2022/06/16 11:17:18;;;;;;;2.53;1.40;;;26.20;65.20;;;;;;6112594;23;20016;-70
2022/06/16 11:19:48;;;;;;;2.22;0.85;;;26.00;63.60;;;;;;6114350;23;20089;-71
2022/06/16 11:22:19;;;;;;;1.92;1.00;;;25.90;64.30;;;;;;6106626;23;20006;-70
2022/06/16 11:24:59;;;;;;;1.40;0.88;;;25.90;65.40;;;;;;6112676;23;20010;-71
2022/06/16 11:27:25;;;;;;;1.95;1.00;;;26.00;65.30;;;;;;6114380;23;20010;-70
2022/06/16 11:29:51;;;;;;;1.80;1.20;;;26.00;64.60;;;;;;6113986;23;20002;-72
2022/06/16 11:32:28;;;;;;;2.67;1.00;;;26.10;65.20;;;;;;6112660;23;20018;-70
2022/06/16 11:34:54;;;;;;;1.75;1.05;;;26.10;63.50;;;;;;6113016;23;20018;-69
2022/06/16 11:37:41;;;;;;;3.05;1.00;;;26.10;65.20;;;;;;6114561;23;20077;-72
2022/06/16 11:40:19;;;;;;;2.70;1.10;;;26.20;61.60;;;;;;6113688;23;20563;-70
2022/06/16 11:43:03;;;;;;;2.72;0.85;;;26.20;64.30;;;;;;6116002;23;20014;-72
2022/06/16 11:45:34;;;;;;;1.15;0.80;;;26.00;61.80;;;;;;6111075;23;20013;-73
2022/06/16 11:48:14;;;;;;;2.65;1.20;;;26.00;64.70;;;;;;6108681;23;20022;-71
2022/06/16 11:50:57;;;;;;;2.72;0.73;;;26.10;64.10;;;;;;6111139;23;20380;-71
2022/06/16 11:53:34;;;;;;;1.60;0.82;;;26.10;60.90;;;;;;6114903;23;20110;-71
2022/06/16 11:56:26;;;;;;;0.95;0.88;;;26.10;64.30;;;;;;6113184;23;20529;-71
2022/06/16 11:59:27;;;;;;;1.00;0.68;;;26.30;61.20;;;;;;6098167;23;20738;-69
2022/06/16 12:02:16;;;;;;;2.60;0.95;;;26.30;62.30;;;;;;6097112;23;20002;-71
2022/06/16 12:04:59;;;;;;;1.67;0.80;;;26.40;62.40;;;;;;6103627;23;20044;-73
2022/06/16 12:08:00;;;;;;;2.72;0.90;;;26.50;63.80;;;;;;6107856;23;20006;-75
2022/06/16 12:10:44;;;;;;;1.52;0.80;;;26.60;65.00;;;;;;6114002;23;20565;-75
2022/06/16 12:13:43;;;;;;;1.00;0.70;;;26.60;64.70;;;;;;6113417;23;20009;-72
2022/06/16 12:16:26;;;;;;;1.70;1.33;;;26.70;61.60;;;;;;6115203;23;20057;-72
2022/06/16 12:19:12;;;;;;;0.85;0.70;;;26.80;61.70;;;;;;6114471;23;20057;-72
2022/06/16 12:22:03;;;;;;;4.03;0.93;;;26.80;61.30;;;;;;6113707;23;20377;-69
2022/06/16 12:24:43;;;;;;;0.63;0.63;;;26.70;59.30;;;;;;6096524;23;20017;-70
2022/06/16 12:27:16;;;;;;;2.60;0.93;;;26.60;61.90;;;;;;6110708;23;20009;-73
2022/06/16 12:30:09;;;;;;;1.98;0.95;;;26.70;59.90;;;;;;6107746;23;19998;-69
2022/06/16 12:32:38;;;;;;;1.92;0.90;;;26.70;58.50;;;;;;6111263;23;20343;-70
2022/06/16 12:35:28;;;;;;;1.23;0.80;;;26.70;58.10;;;;;;6111691;23;20009;-71
2022/06/16 12:37:58;;;;;;;2.55;0.90;;;26.80;62.20;;;;;;6113258;23;20005;-71
2022/06/16 12:40:30;;;;;;;2.22;0.80;;;26.80;59.90;;;;;;6112707;23;20006;-70
2022/06/16 12:43:06;;;;;;;2.47;0.75;;;26.80;62.20;;;;;;6110073;23;20098;-71
2022/06/16 12:45:37;;;;;;;1.90;0.80;;;26.80;58.90;;;;;;6084502;23;20443;-69
2022/06/16 12:48:09;;;;;;;1.13;0.70;;;26.80;57.90;;;;;;6110170;23;20053;-67
2022/06/16 12:50:39;;;;;;;;;;;26.60;58.20;;;;;;6085543;23;20422;-68
2022/06/16 12:53:16;;;;;;;2.20;0.70;;;26.60;60.00;;;;;;6110594;23;19909;-70
2022/06/16 12:55:44;;;;;;;13.05;2.35;;;26.70;59.60;;;;;;6111694;23;20002;-69
2022/06/16 12:58:51;;;;;;;13.68;1.40;;;26.80;61.20;;;;;;6111758;23;20463;-72
2022/06/16 13:01:18;;;;;;;2.88;1.40;;;26.90;60.70;;;;;;6070450;23;20018;-70
2022/06/16 13:03:52;;;;;;;4.20;1.50;;;26.80;58.20;;;;;;6110148;23;20473;-66
2022/06/16 13:06:21;;;;;;;1.88;0.95;;;26.80;55.70;;;;;;6107639;23;20002;-71
2022/06/16 13:08:51;;;;;;;4.20;1.27;;;26.50;55.90;;;;;;6083757;23;19997;-72
2022/06/16 13:11:25;;;;;;;2.53;1.35;;;26.50;56.90;;;;;;6111999;23;20037;-71
2022/06/16 13:14:06;;;;;;;5.70;1.02;;;26.50;57.80;;;;;;6112692;23;20025;-71
2022/06/16 13:16:35;;;;;;;2.45;1.00;;;26.70;58.70;;;;;;6110412;23;20009;-70
2022/06/16 13:19:13;;;;;;;3.90;1.00;;;26.80;57.30;;;;;;6109466;23;20005;-72
2022/06/16 13:21:41;;;;;;;1.58;1.00;;;26.90;57.10;;;;;;6111287;23;20116;-73
2022/06/16 13:24:21;;;;;;;1.52;1.10;;;26.90;57.60;;;;;;6112062;23;20080;-71
2022/06/16 13:27:07;;;;;;;4.10;0.77;;;26.90;56.50;;;;;;6110259;23;20503;-72
2022/06/16 13:29:49;;;;;;;0.98;0.88;;;27.00;54.20;;;;;;6111569;23;20281;-71
2022/06/16 13:32:20;;;;;;;2.67;0.77;;;27.00;53.60;;;;;;6109209;23;20045;-71
2022/06/16 13:34:55;;;;;;;1.48;0.90;;;27.00;56.70;;;;;;6112620;23;20053;-72